Aeroporto :
LOGIN :

Iscrizione | Disclaimer

   EN    FR    IT 

 










Sommario :    VFR   VFR Marginale   IFR   IFR Intensivo   IFR Molto Intensivo
Visibilità : 
Base nubi : 
>= 8 km
>= 3000ft
5 / 8 km
1000 / 3000 ft
1500m / 5 km
500 / 1000 ft
800 / 1500m
200 / 500 ft
< 800m
< 200 ft
Simboli :   Temporali  Nebbia  Neve Forte  Precipitazioni Forti  Vento > 20 kt
SIGMETs :   Varie  Temporali  Ghiacco  Turbolenza  Onda orograficha  Ceneri Vulcaniche






- Altitudine del aeroporto : 100 ft
- Codice IATA : DCI


LIED - Decimomannu Air Base

ULTIMO METAR :
  • 131455Z 25006KT 9999 FEW020 SCT035 17/13 Q1004 RMK BKN VIS MIN 9999 WIND THR35 27002KT WIND THR17 /////KT BLU

METARs OBSOLETI :
  • 131355Z 30006KT 9999 FEW020 SCT035 17/12 Q1004 RMK BKN VIS MIN 9999 WIND THR35 28004KT WIND THR17 /////KT BLU
  • 131255Z 31008KT 9999 FEW020 SCT030 17/11 Q1004 RMK BKN VIS MIN 9999 WIND THR35 31007KT WIND THR17 /////KT BLU

TAF TAF LIED
Valido dal 13 a 09 ore il 13 a 18 ore UTC


130800Z 1309/1318 28013KT 9999 FEW020 SCT050
TEMPO 1312/1318 BKN030



MetMap, La meteo Aeronautica in un colpo d'occhio ! - Copyright ORBIFLY Dicembre 2007 - Disclaimer

ORBIFLY MET'MAP TEAM :

Programmazione e sviluppo : Alexandra Zaïnal
Concezione e sviluppo : Baudouin d'Aumeries
Co-Programmazione e sviluppo : Marc-Olivier Méhu
Supporto tecnico e logistico : Manuel Goepfert
Aiuto per la traduzione : Arnaldo La Scala

Contatto : metmap@orbifly.com




FONTI E CREDITI :

   NOAA